Time;durP1;ratioP1;P1;durP2;ratioP2;P2;SDS_P1;SDS_P2;PMS_P1;PMS_P2;Temp;Humidity;BMP_temperature;BMP_pressure;BME280_temperature;BME280_humidity;BME280_pressure;Samples;Min_cycle;Max_cycle;Signal;HPM_P1;HPM_P2
2022/12/08 00:02:06;;;;;;;;;;;;;;;20.95;28.40;97770.53;5101655;28;853;-84
2022/12/08 00:09:20;;;;;;;;;;;;;;;20.94;28.23;97769.72;5100559;28;809;-84
2022/12/08 00:10:01;;;;;;;;;;;;;;;20.50;28.96;97774.13;5099555;28;1980;-84
2022/12/08 00:12:26;;;;;;;;;;;;;;;20.70;28.78;97777.63;5084349;28;900;-84
2022/12/08 00:14:53;;;;;;;;;;;;;;;20.92;28.35;97782.72;5100772;28;806;-83
2022/12/08 00:17:18;;;;;;;;;;;;;;;20.87;28.32;97780.44;5101164;28;921;-83
2022/12/08 00:19:44;;;;;;;;;;;;;;;20.99;28.19;97774.84;5099780;28;723;-84
2022/12/08 00:22:10;;;;;;;;;;;;;;;20.75;28.41;97771.44;5100775;28;715;-83
2022/12/08 00:24:38;;;;;;;;;;;;;;;20.64;28.67;97779.41;5041134;28;1129;-83
2022/12/08 00:27:04;;;;;;;;;;;;;;;20.41;29.26;97768.28;5043435;28;842;-83
2022/12/08 00:29:29;;;;;;;;;;;;;;;20.60;28.91;97766.63;5024796;28;1950;-83
2022/12/08 00:31:54;;;;;;;;;;;;;;;20.87;28.60;97771.94;5058741;28;739;-83
2022/12/08 00:34:20;;;;;;;;;;;;;;;21.11;28.17;97773.28;5058081;28;754;-83
2022/12/08 00:36:45;;;;;;;;;;;;;;;21.05;28.17;97760.94;5059180;28;791;-84
2022/12/08 00:39:11;;;;;;;;;;;;;;;20.92;28.37;97771.41;5041234;28;846;-84
2022/12/08 00:44:21;;;;;;;;;;;;;;;20.25;29.09;97781.16;5018018;28;834;-84
2022/12/08 00:46:46;;;;;;;;;;;;;;;20.67;29.00;97783.38;5019250;28;887;-83
2022/12/08 00:49:12;;;;;;;;;;;;;;;20.97;28.32;97796.31;5001336;28;1954;-83
2022/12/08 00:51:37;;;;;;;;;;;;;;;20.92;28.42;97794.03;5003220;28;854;-84
2022/12/08 00:54:03;;;;;;;;;;;;;;;21.08;28.26;97796.81;5001886;28;811;-83
2022/12/08 00:56:28;;;;;;;;;;;;;;;20.78;28.71;97790.34;5018781;28;941;-84
2022/12/08 00:58:54;;;;;;;;;;;;;;;20.70;28.59;97788.94;5001434;28;799;-83
2022/12/08 01:01:19;;;;;;;;;;;;;;;20.41;29.26;97786.00;5011318;28;846;-84
2022/12/08 01:03:45;;;;;;;;;;;;;;;20.84;28.69;97789.81;5056693;28;849;-83
2022/12/08 01:06:10;;;;;;;;;;;;;;;20.97;28.40;97790.66;5042176;28;784;-84
2022/12/08 01:08:36;;;;;;;;;;;;;;;20.98;28.26;97783.75;5039571;28;1125;-83
2022/12/08 01:11:02;;;;;;;;;;;;;;;20.91;28.37;97776.25;5042797;28;1910;-83
2022/12/08 01:13:28;;;;;;;;;;;;;;;20.71;28.65;97772.78;5023190;28;925;-83
2022/12/08 01:15:53;;;;;;;;;;;;;;;20.59;28.69;97777.13;5059278;28;814;-83
2022/12/08 01:18:18;;;;;;;;;;;;;;;20.75;28.50;97768.63;5065092;28;905;-83
2022/12/08 01:20:44;;;;;;;;;;;;;;;20.86;28.48;97778.84;5101633;28;876;-83
2022/12/08 01:23:10;;;;;;;;;;;;;;;21.02;28.10;97770.31;5099696;28;789;-84
2022/12/08 01:25:35;;;;;;;;;;;;;;;21.06;28.30;97777.47;5101515;28;758;-84
2022/12/08 01:28:01;;;;;;;;;;;;;;;21.12;28.07;97774.88;5099582;28;895;-84
2022/12/08 01:30:26;;;;;;;;;;;;;;;21.10;28.07;97770.91;5100721;28;1973;-83
2022/12/08 01:32:52;;;;;;;;;;;;;;;20.85;28.37;97771.59;5100308;28;825;-83
2022/12/08 01:35:17;;;;;;;;;;;;;;;20.48;28.86;97777.41;5100686;28;727;-83
2022/12/08 01:37:43;;;;;;;;;;;;;;;20.36;29.42;97768.81;5100629;28;885;-83
2022/12/08 01:40:08;;;;;;;;;;;;;;;20.29;29.67;97775.44;5099709;28;723;-82
2022/12/08 01:42:37;;;;;;;;;;;;;;;20.77;28.70;97771.00;5102175;28;889;-84
2022/12/08 01:45:06;;;;;;;;;;;;;;;20.99;28.28;97772.00;5103773;28;837;-83
2022/12/08 01:47:41;;;;;;;;;;;;;;;21.14;28.03;97777.25;5105039;28;727;-83
2022/12/08 01:50:08;;;;;;;;;;;;;;;21.07;28.19;97783.91;5102068;28;1897;-83
2022/12/08 01:52:40;;;;;;;;;;;;;;;20.75;28.40;97757.31;5104734;28;932;-84
2022/12/08 01:55:10;;;;;;;;;;;;;;;20.53;28.93;97768.41;5104029;28;885;-83
2022/12/08 01:57:40;;;;;;;;;;;;;;;20.72;28.90;97752.53;5103788;28;754;-83
2022/12/08 02:00:07;;;;;;;;;;;;;;;20.96;28.35;97761.59;5102112;28;734;-83
2022/12/08 02:02:48;;;;;;;;;;;;;;;20.93;28.31;97768.13;5069115;28;885;-83
2022/12/08 02:05:13;;;;;;;;;;;;;;;20.97;28.10;97762.38;5085846;28;1478;-83
2022/12/08 02:07:39;;;;;;;;;;;;;;;20.72;28.50;97761.00;5103242;28;790;-84
2022/12/08 02:10:04;;;;;;;;;;;;;;;20.40;29.26;97763.84;5102916;28;1898;-84
2022/12/08 02:12:30;;;;;;;;;;;;;;;20.52;28.68;97757.50;5120349;28;785;-83
2022/12/08 02:14:55;;;;;;;;;;;;;;;20.54;28.97;97763.53;5102847;28;747;-83
2022/12/08 02:17:27;;;;;;;;;;;;;;;20.84;28.75;97770.03;5104242;28;734;-83
2022/12/08 02:20:11;;;;;;;;;;;;;;;20.92;28.24;97760.09;5103119;28;759;-83
2022/12/08 02:22:59;;;;;;;;;;;;;;;20.93;28.28;97762.47;5064523;28;1158;-83
2022/12/08 02:25:27;;;;;;;;;;;;;;;21.01;27.93;97763.06;5021427;28;1091;-84
2022/12/08 02:28:11;;;;;;;;;;;;;;;20.45;29.07;97766.16;5020376;28;1000;-83
2022/12/08 02:30:42;;;;;;;;;;;;;;;20.59;28.84;97770.69;5021410;28;1887;-84
2022/12/08 02:33:23;;;;;;;;;;;;;;;21.10;28.24;97765.25;5003848;28;802;-83
2022/12/08 02:35:55;;;;;;;;;;;;;;;21.08;28.16;97769.31;5021771;28;1035;-83
2022/12/08 02:38:39;;;;;;;;;;;;;;;21.03;28.42;97766.25;5019580;28;1254;-84
2022/12/08 02:41:16;;;;;;;;;;;;;;;20.93;28.58;97772.97;5022029;28;830;-83
2022/12/08 02:43:50;;;;;;;;;;;;;;;20.65;28.61;97763.25;5019381;28;929;-83
2022/12/08 02:46:23;;;;;;;;;;;;;;;20.48;29.02;97773.78;5021947;28;838;-84
2022/12/08 02:48:49;;;;;;;;;;;;;;;20.44;29.28;97771.00;5003231;28;991;-83
2022/12/08 02:51:15;;;;;;;;;;;;;;;20.76;28.86;97775.84;5021458;28;1901;-83
2022/12/08 02:53:40;;;;;;;;;;;;;;;20.97;28.37;97785.00;5038806;28;950;-83
2022/12/08 02:56:24;;;;;;;;;;;;;;;20.91;28.59;97776.25;5061681;28;909;-83
2022/12/08 02:58:50;;;;;;;;;;;;;;;20.92;28.28;97782.72;5059005;28;731;-83
2022/12/08 03:01:18;;;;;;;;;;;;;;;20.74;28.73;97772.69;5045774;28;931;-84
2022/12/08 03:03:50;;;;;;;;;;;;;;;20.60;29.12;97777.91;5100943;28;707;-83
2022/12/08 03:06:24;;;;;;;;;;;;;;;20.58;29.06;97786.84;5102379;28;821;-83
2022/12/08 03:08:50;;;;;;;;;;;;;;;20.80;28.61;97787.88;5100271;28;1033;-83
2022/12/08 03:11:19;;;;;;;;;;;;;;;20.83;28.48;97780.53;5102631;28;1906;-84
2022/12/08 03:13:45;;;;;;;;;;;;;;;21.01;28.20;97788.53;5100336;28;742;-83
2022/12/08 03:16:11;;;;;;;;;;;;;;;20.92;28.41;97777.06;5103806;28;758;-83
2022/12/08 03:18:38;;;;;;;;;;;;;;;20.74;28.41;97784.00;5099974;28;762;-84
2022/12/08 03:21:04;;;;;;;;;;;;;;;20.68;28.78;97785.78;5085265;28;739;-84
2022/12/08 03:23:30;;;;;;;;;;;;;;;20.35;29.25;97782.13;5116464;28;813;-83
2022/12/08 03:25:56;;;;;;;;;;;;;;;20.68;28.77;97785.78;5085746;28;1669;-83
2022/12/08 03:28:22;;;;;;;;;;;;;;;20.89;28.36;97800.59;5101526;28;853;-83
2022/12/08 03:30:47;;;;;;;;;;;;;;;20.97;28.28;97801.97;5101814;28;1910;-83
2022/12/08 03:33:18;;;;;;;;;;;;;;;21.17;27.99;97799.78;5099887;28;794;-83
2022/12/08 03:35:43;;;;;;;;;;;;;;;20.64;28.65;97790.72;5101784;28;904;-83
2022/12/08 03:38:10;;;;;;;;;;;;;;;20.46;29.20;97796.00;5099865;28;849;-83
2022/12/08 03:40:35;;;;;;;;;;;;;;;20.41;29.29;97799.34;5103271;28;743;-83
2022/12/08 03:43:01;;;;;;;;;;;;;;;20.79;28.77;97797.59;5102084;28;977;-83
2022/12/08 03:45:26;;;;;;;;;;;;;;;20.81;28.52;97795.09;5101346;28;798;-84
2022/12/08 03:47:52;;;;;;;;;;;;;;;21.04;28.27;97801.78;5100664;28;1161;-83
2022/12/08 03:50:17;;;;;;;;;;;;;;;21.01;28.51;97803.47;5101603;28;1906;-83
2022/12/08 03:52:42;;;;;;;;;;;;;;;20.55;28.76;97804.69;5078743;28;858;-83
2022/12/08 03:55:08;;;;;;;;;;;;;;;20.56;29.13;97811.91;5078094;28;924;-83
2022/12/08 03:57:33;;;;;;;;;;;;;;;20.41;29.17;97811.44;5080005;28;784;-83
2022/12/08 03:59:59;;;;;;;;;;;;;;;20.79;28.63;97823.03;5078025;28;849;-83
2022/12/08 04:02:24;;;;;;;;;;;;;;;20.88;28.49;97816.78;5079696;28;924;-83
2022/12/08 04:04:50;;;;;;;;;;;;;;;21.11;28.04;97817.78;5077886;28;794;-84
2022/12/08 04:07:15;;;;;;;;;;;;;;;20.64;28.65;97813.34;5079523;28;818;-84
2022/12/08 04:09:41;;;;;;;;;;;;;;;20.32;29.15;97819.78;5077994;28;1910;-83
2022/12/08 04:12:07;;;;;;;;;;;;;;;20.46;29.18;97824.25;5079658;28;923;-83
2022/12/08 04:14:32;;;;;;;;;;;;;;;20.75;28.64;97825.16;5077743;28;828;-83
2022/12/08 04:16:57;;;;;;;;;;;;;;;20.84;28.64;97821.72;5038973;28;908;-84
2022/12/08 04:19:23;;;;;;;;;;;;;;;21.00;28.25;97826.53;5038155;28;975;-83
2022/12/08 04:21:48;;;;;;;;;;;;;;;20.98;28.32;97826.97;5038830;28;790;-84
2022/12/08 04:24:14;;;;;;;;;;;;;;;20.91;28.37;97823.56;5066974;28;945;-83
2022/12/08 04:26:39;;;;;;;;;;;;;;;20.59;28.71;97828.00;5079210;28;739;-83
2022/12/08 04:29:05;;;;;;;;;;;;;;;20.52;28.98;97823.34;5078257;28;949;-83
2022/12/08 04:31:30;;;;;;;;;;;;;;;20.97;28.64;97835.91;5079182;28;1984;-83
2022/12/08 04:33:56;;;;;;;;;;;;;;;20.96;28.26;97834.31;5076922;28;946;-83
2022/12/08 04:36:21;;;;;;;;;;;;;;;20.91;28.44;97835.66;5078899;28;794;-83
2022/12/08 04:38:47;;;;;;;;;;;;;;;20.99;28.43;97833.44;5076752;28;802;-83
2022/12/08 04:41:12;;;;;;;;;;;;;;;20.72;28.35;97833.72;5079582;28;925;-83
2022/12/08 04:43:37;;;;;;;;;;;;;;;20.59;28.63;97825.19;5059523;28;834;-83
2022/12/08 04:46:07;;;;;;;;;;;;;;;20.42;28.92;97826.41;5079873;28;817;-84
2022/12/08 04:48:32;;;;;;;;;;;;;;;20.69;28.57;97826.94;5077503;28;832;-84
2022/12/08 04:50:57;;;;;;;;;;;;;;;20.86;28.47;97832.56;5045804;28;1899;-83
2022/12/08 04:53:25;;;;;;;;;;;;;;;20.87;28.38;97837.00;5079040;28;908;-83
2022/12/08 04:55:50;;;;;;;;;;;;;;;21.01;28.03;97831.75;5101250;28;1237;-84
2022/12/08 04:58:17;;;;;;;;;;;;;;;21.03;27.96;97839.78;5098287;28;857;-83
2022/12/08 05:00:42;;;;;;;;;;;;;;;20.68;28.37;97847.97;5099652;28;812;-83
2022/12/08 05:03:08;;;;;;;;;;;;;;;20.61;28.51;97848.13;5098924;28;838;-83
2022/12/08 05:05:33;;;;;;;;;;;;;;;20.34;29.29;97850.41;5100825;28;750;-83
2022/12/08 05:07:59;;;;;;;;;;;;;;;20.65;28.52;97848.84;5098545;28;1236;-83
2022/12/08 05:10:24;;;;;;;;;;;;;;;20.74;28.63;97849.03;5099855;28;1903;-82
2022/12/08 05:12:49;;;;;;;;;;;;;;;20.94;28.22;97853.78;5100463;28;740;-83
2022/12/08 05:15:15;;;;;;;;;;;;;;;20.99;27.88;97851.22;5100260;28;806;-83
2022/12/08 05:17:40;;;;;;;;;;;;;;;21.21;27.77;97851.44;5099367;28;739;-83
2022/12/08 05:20:06;;;;;;;;;;;;;;;20.62;28.38;97854.59;5098849;28;1046;-83
2022/12/08 05:22:32;;;;;;;;;;;;;;;20.26;28.98;97861.88;5074732;28;924;-83
2022/12/08 05:24:57;;;;;;;;;;;;;;;20.32;28.94;97852.88;5040275;28;818;-83
2022/12/08 05:27:23;;;;;;;;;;;;;;;20.77;28.56;97850.94;5041278;28;771;-83
2022/12/08 05:29:49;;;;;;;;;;;;;;;20.96;28.03;97868.28;5039594;28;1969;-82
2022/12/08 05:32:14;;;;;;;;;;;;;;;21.12;27.73;97876.72;5040656;28;927;-83
2022/12/08 05:34:40;;;;;;;;;;;;;;;21.04;27.83;97876.13;5039644;28;785;-83
2022/12/08 05:37:05;;;;;;;;;;;;;;;20.76;28.10;97886.13;5058154;28;917;-83
2022/12/08 05:39:31;;;;;;;;;;;;;;;20.61;28.54;97882.06;5056316;28;771;-83
2022/12/08 05:41:56;;;;;;;;;;;;;;;20.40;28.67;97896.69;5058020;28;839;-83
2022/12/08 05:44:22;;;;;;;;;;;;;;;20.64;28.67;97898.16;5056654;28;700;-83
2022/12/08 05:46:47;;;;;;;;;;;;;;;20.84;28.13;97894.44;5041796;28;842;-83
2022/12/08 05:49:12;;;;;;;;;;;;;;;21.10;27.69;97899.03;5055919;28;877;-83
2022/12/08 05:51:38;;;;;;;;;;;;;;;21.17;27.72;97896.00;5041219;28;1989;-84
2022/12/08 05:54:03;;;;;;;;;;;;;;;20.63;28.06;97895.78;5087523;28;806;-83
2022/12/08 05:56:29;;;;;;;;;;;;;;;20.36;28.62;97899.56;5100100;28;856;-84
2022/12/08 05:58:54;;;;;;;;;;;;;;;20.42;28.50;97914.81;5098264;28;789;-83
2022/12/08 06:01:23;;;;;;;;;;;;;;;20.61;28.56;97915.97;5100961;28;796;-83
2022/12/08 06:03:48;;;;;;;;;;;;;;;20.99;27.97;97919.09;5098886;28;849;-83
2022/12/08 06:06:14;;;;;;;;;;;;;;;21.00;27.65;97919.91;5083172;28;1164;-83
2022/12/08 06:08:39;;;;;;;;;;;;;;;20.93;27.83;97915.19;5098061;28;1032;-82
2022/12/08 06:11:05;;;;;;;;;;;;;;;20.90;28.06;97915.31;5100784;28;1976;-83
2022/12/08 06:13:30;;;;;;;;;;;;;;;20.99;27.82;97918.31;5098185;28;690;-83
2022/12/08 06:16:01;;;;;;;;;;;;;;;20.70;28.13;97916.16;5100026;28;701;-84
2022/12/08 06:18:27;;;;;;;;;;;;;;;20.41;28.50;97920.88;5096788;28;853;-83
2022/12/08 06:21:00;;;;;;;;;;;;;;;20.52;28.59;97922.28;5100631;28;694;-83
2022/12/08 06:23:25;;;;;;;;;;;;;;;20.86;28.29;97925.91;5097685;28;856;-83
2022/12/08 06:25:51;;;;;;;;;;;;;;;20.92;28.07;97924.13;5100623;28;765;-83
2022/12/08 06:28:16;;;;;;;;;;;;;;;21.02;28.10;97923.06;5098211;28;892;-83
2022/12/08 06:30:42;;;;;;;;;;;;;;;21.22;27.51;97929.41;5103162;28;2051;-83
2022/12/08 06:33:07;;;;;;;;;;;;;;;21.02;27.67;97925.88;5101222;28;695;-83
2022/12/08 06:35:32;;;;;;;;;;;;;;;20.71;28.12;97919.78;5103102;28;734;-83
2022/12/08 06:37:58;;;;;;;;;;;;;;;20.52;28.60;97929.94;5102770;28;854;-83
2022/12/08 06:40:23;;;;;;;;;;;;;;;20.71;28.33;97929.06;5101376;28;845;-83
2022/12/08 06:42:49;;;;;;;;;;;;;;;20.90;28.25;97924.56;5084974;28;853;-83
2022/12/08 06:45:15;;;;;;;;;;;;;;;20.96;28.02;97930.50;5102441;28;714;-83
2022/12/08 06:47:41;;;;;;;;;;;;;;;20.90;28.19;97923.78;5066491;28;892;-83
2022/12/08 06:50:06;;;;;;;;;;;;;;;20.72;28.18;97927.81;5101983;28;1963;-83
2022/12/08 06:52:32;;;;;;;;;;;;;;;20.61;28.40;97932.94;5103126;28;766;-83
2022/12/08 06:54:57;;;;;;;;;;;;;;;20.41;28.78;97935.00;5101977;28;726;-83
2022/12/08 06:57:23;;;;;;;;;;;;;;;20.45;28.84;97930.06;5103054;28;703;-83
2022/12/08 06:59:49;;;;;;;;;;;;;;;20.69;28.77;97928.72;5101996;28;734;-83
2022/12/08 07:02:14;;;;;;;;;;;;;;;20.95;28.09;97923.25;5101413;28;913;-83
2022/12/08 07:04:39;;;;;;;;;;;;;;;20.97;28.21;97932.09;5101298;28;804;-82
2022/12/08 07:07:05;;;;;;;;;;;;;;;21.01;28.01;97932.78;5101601;28;794;-83
2022/12/08 07:09:30;;;;;;;;;;;;;;;20.90;28.03;97937.94;5101309;28;1905;-82
2022/12/08 07:11:56;;;;;;;;;;;;;;;20.51;28.70;97934.00;5102385;28;802;-83
2022/12/08 07:14:23;;;;;;;;;;;;;;;20.50;28.87;97943.72;5099711;28;778;-82
2022/12/08 07:16:49;;;;;;;;;;;;;;;20.74;28.42;97939.50;5102419;28;871;-83
2022/12/08 07:19:15;;;;;;;;;;;;;;;20.87;28.47;97933.13;5101499;28;754;-83
2022/12/08 07:21:40;;;;;;;;;;;;;;;21.04;28.16;97931.91;5101213;28;738;-83
2022/12/08 07:24:06;;;;;;;;;;;;;;;21.12;27.89;97927.66;5078104;28;913;-83
2022/12/08 07:26:31;;;;;;;;;;;;;;;20.71;28.60;97925.44;5079615;28;838;-83
2022/12/08 07:28:58;;;;;;;;;;;;;;;20.58;28.61;97933.84;5078076;28;881;-83
2022/12/08 07:31:23;;;;;;;;;;;;;;;20.74;28.54;97925.38;5079786;28;1957;-83
2022/12/08 07:33:49;;;;;;;;;;;;;;;20.75;28.58;97935.44;5077504;28;938;-83
2022/12/08 07:36:15;;;;;;;;;;;;;;;20.91;28.13;97931.03;5079900;28;857;-83
2022/12/08 07:38:40;;;;;;;;;;;;;;;21.05;28.21;97927.84;5077363;28;817;-83
2022/12/08 07:41:10;;;;;;;;;;;;;;;20.95;28.10;97934.56;5063007;28;1222;-83
2022/12/08 07:43:35;;;;;;;;;;;;;;;20.71;28.44;97943.22;5057015;28;1153;-83
2022/12/08 07:46:01;;;;;;;;;;;;;;;20.61;28.60;97941.44;5059419;28;822;-83
2022/12/08 07:48:26;;;;;;;;;;;;;;;20.60;29.00;97942.66;5057244;28;778;-83
2022/12/08 07:50:58;;;;;;;;;;;;;;;20.69;28.63;97945.69;5058903;28;1967;-84
2022/12/08 07:53:23;;;;;;;;;;;;;;;20.87;28.32;97948.06;5040928;28;862;-83
2022/12/08 07:55:49;;;;;;;;;;;;;;;21.01;28.21;97938.44;5076028;28;920;-83
2022/12/08 07:58:14;;;;;;;;;;;;;;;21.05;28.29;97936.34;5077371;28;758;-83
2022/12/08 08:00:40;;;;;;;;;;;;;;;20.94;28.10;97938.63;5079182;28;953;-83
2022/12/08 08:03:07;;;;;;;;;;;;;;;20.72;28.57;97944.78;5061232;28;845;-83
2022/12/08 08:05:33;;;;;;;;;;;;;;;20.47;29.06;97955.91;5078362;28;822;-83
2022/12/08 08:07:58;;;;;;;;;;;;;;;20.57;29.23;97960.50;5060634;28;890;-83
2022/12/08 08:10:23;;;;;;;;;;;;;;;21.00;28.38;97960.28;5077873;28;1940;-83
2022/12/08 08:12:49;;;;;;;;;;;;;;;20.96;28.21;97958.78;5078009;28;1140;-83
2022/12/08 08:15:16;;;;;;;;;;;;;;;21.03;28.25;97959.38;5061012;28;786;-83
2022/12/08 08:17:41;;;;;;;;;;;;;;;21.07;28.08;97964.97;5045550;28;787;-83
2022/12/08 08:20:07;;;;;;;;;;;;;;;20.71;28.70;97965.81;5063687;28;983;-83
2022/12/08 08:22:32;;;;;;;;;;;;;;;20.59;28.74;97971.38;5100112;28;1208;-83
2022/12/08 08:24:58;;;;;;;;;;;;;;;20.31;29.35;97967.91;5098922;28;759;-83
2022/12/08 08:27:24;;;;;;;;;;;;;;;20.84;28.42;97973.63;5101838;28;727;-83
2022/12/08 08:29:50;;;;;;;;;;;;;;;20.89;28.68;97970.28;5099923;28;1972;-83
2022/12/08 08:32:16;;;;;;;;;;;;;;;20.96;28.35;97970.09;5083012;28;767;-83
2022/12/08 08:34:41;;;;;;;;;;;;;;;20.93;28.30;97970.97;5098312;28;1228;-83
2022/12/08 08:37:06;;;;;;;;;;;;;;;20.61;28.90;97960.44;5100619;28;1108;-83
2022/12/08 08:39:32;;;;;;;;;;;;;;;20.50;29.00;97961.47;5099060;28;679;-83
2022/12/08 08:41:57;;;;;;;;;;;;;;;20.51;28.99;97953.78;5101090;28;858;-83
2022/12/08 08:44:23;;;;;;;;;;;;;;;20.76;28.98;97956.03;5098485;28;718;-83
2022/12/08 08:46:48;;;;;;;;;;;;;;;20.97;28.54;97957.53;5101177;28;770;-83
2022/12/08 08:49:14;;;;;;;;;;;;;;;21.07;28.24;97956.47;5099493;28;738;-84
2022/12/08 08:51:39;;;;;;;;;;;;;;;21.13;28.22;97954.69;5099608;28;1887;-84
2022/12/08 08:54:05;;;;;;;;;;;;;;;21.15;28.06;97960.72;5098644;28;830;-83
2022/12/08 08:56:30;;;;;;;;;;;;;;;20.83;28.28;97961.53;5101204;28;766;-83
2022/12/08 08:58:56;;;;;;;;;;;;;;;20.59;28.81;97957.25;5080276;28;991;-84
2022/12/08 09:01:22;;;;;;;;;;;;;;;20.28;29.27;97954.69;5099802;28;854;-83
2022/12/08 09:03:48;;;;;;;;;;;;;;;20.80;28.82;97956.75;5098913;28;711;-83
2022/12/08 09:06:13;;;;;;;;;;;;;;;20.93;28.58;97965.31;5101151;28;750;-83
2022/12/08 09:08:39;;;;;;;;;;;;;;;21.30;27.71;97953.50;5099408;28;1058;-83
2022/12/08 09:11:05;;;;;;;;;;;;;;;21.09;28.05;97951.19;5083580;28;1894;-83
2022/12/08 09:13:32;;;;;;;;;;;;;;;20.80;28.42;97951.88;5097997;28;1015;-83
2022/12/08 09:15:59;;;;;;;;;;;;;;;20.52;28.79;97944.06;5101676;28;766;-82
2022/12/08 09:18:24;;;;;;;;;;;;;;;20.46;28.76;97949.44;5115133;28;838;-83
2022/12/08 09:20:50;;;;;;;;;;;;;;;20.82;28.67;97945.78;5100860;28;786;-83
2022/12/08 09:23:15;;;;;;;;;;;;;;;20.96;28.56;97941.81;5099168;28;734;-83
2022/12/08 09:25:42;;;;;;;;;;;;;;;20.91;28.43;97933.84;5099557;28;770;-83
2022/12/08 09:28:08;;;;;;;;;;;;;;;21.04;28.37;97943.22;5098601;28;778;-83
2022/12/08 09:30:33;;;;;;;;;;;;;;;20.66;28.57;97938.06;5099467;28;1910;-83
2022/12/08 09:32:59;;;;;;;;;;;;;;;20.49;28.80;97936.47;5100034;28;699;-83
2022/12/08 09:35:24;;;;;;;;;;;;;;;20.62;29.21;97930.91;5100489;28;750;-83
2022/12/08 09:37:50;;;;;;;;;;;;;;;20.67;29.19;97925.53;5080484;28;894;-83
2022/12/08 09:40:16;;;;;;;;;;;;;;;20.89;28.74;97936.34;5099665;28;775;-83
2022/12/08 09:42:53;;;;;;;;;;;;;;;20.98;28.50;97928.00;5065003;28;1145;-83
2022/12/08 09:45:19;;;;;;;;;;;;;;;20.95;28.60;97928.91;5098469;28;762;-83
2022/12/08 09:47:57;;;;;;;;;;;;;;;20.58;28.71;97922.53;5099621;28;777;-83
2022/12/08 09:50:39;;;;;;;;;;;;;;;20.43;29.03;97932.56;5099878;28;1902;-83
2022/12/08 09:53:08;;;;;;;;;;;;;;;20.43;29.91;97921.25;5098211;28;881;-84
2022/12/08 09:55:39;;;;;;;;;;;;;;;20.75;28.79;97921.31;5098404;28;702;-83
2022/12/08 09:58:16;;;;;;;;;;;;;;;20.91;28.96;97922.53;5099397;28;802;-83
2022/12/08 10:00:42;;;;;;;;;;;;;;;21.06;28.46;97918.13;5082182;28;1187;-83
2022/12/08 10:03:10;;;;;;;;;;;;;;;21.05;28.47;97925.03;5099316;28;782;-84
2022/12/08 10:05:36;;;;;;;;;;;;;;;21.05;28.41;97922.97;5103990;28;896;-83
2022/12/08 10:08:13;;;;;;;;;;;;;;;20.80;28.91;97925.63;5102538;28;817;-83
2022/12/08 10:10:48;;;;;;;;;;;;;;;20.46;29.25;97935.31;5104698;28;1906;-84
2022/12/08 10:13:17;;;;;;;;;;;;;;;20.42;29.16;97928.13;5102142;28;1031;-83
2022/12/08 10:15:51;;;;;;;;;;;;;;;20.49;29.85;97925.97;5109126;28;1573;-84
2022/12/08 10:18:18;;;;;;;;;;;;;;;20.89;28.87;97925.03;5122143;28;849;-83
2022/12/08 10:20:44;;;;;;;;;;;;;;;20.98;28.86;97916.69;5107280;28;817;-83
2022/12/08 10:23:29;;;;;;;;;;;;;;;21.02;28.60;97921.03;5122569;28;817;-83
2022/12/08 10:26:02;;;;;;;;;;;;;;;20.59;29.16;97912.81;5125055;28;785;-83
2022/12/08 10:28:28;;;;;;;;;;;;;;;20.57;29.00;97915.25;5121406;28;755;-83
2022/12/08 10:30:53;;;;;;;;;;;;;;;20.57;29.37;97898.31;5124484;28;1955;-83
2022/12/08 10:33:19;;;;;;;;;;;;;;;20.72;29.37;97902.38;5122858;28;797;-84
2022/12/08 10:35:45;;;;;;;;;;;;;;;21.04;28.52;97893.09;5123420;28;726;-84
2022/12/08 10:38:18;;;;;;;;;;;;;;;21.17;28.57;97896.00;5121869;28;825;-83
2022/12/08 10:40:44;;;;;;;;;;;;;;;21.11;28.52;97897.78;5123521;28;884;-84
2022/12/08 10:43:13;;;;;;;;;;;;;;;20.66;29.17;97892.84;5121977;28;855;-84
2022/12/08 10:45:40;;;;;;;;;;;;;;;20.43;29.37;97904.28;5106362;28;1246;-83
2022/12/08 10:48:19;;;;;;;;;;;;;;;20.74;29.09;97899.94;5099700;28;1066;-83
2022/12/08 10:50:45;;;;;;;;;;;;;;;20.98;28.89;97899.72;5101536;28;1975;-84
2022/12/08 10:53:15;;;;;;;;;;;;;;;20.99;28.55;97895.69;5083195;28;1066;-83
2022/12/08 10:55:43;;;;;;;;;;;;;;;21.04;28.78;97897.97;5098082;28;853;-83
2022/12/08 10:58:27;;;;;;;;;;;;;;;20.94;28.48;97893.38;5100089;28;904;-83
2022/12/08 11:01:11;;;;;;;;;;;;;;;20.63;29.00;97888.09;5101310;28;806;-83
2022/12/08 11:03:55;;;;;;;;;;;;;;;20.43;29.78;97881.69;5082721;28;1213;-83
2022/12/08 11:06:30;;;;;;;;;;;;;;;20.79;29.23;97878.81;5101159;28;738;-83
2022/12/08 11:09:00;;;;;;;;;;;;;;;20.95;28.64;97872.34;5082006;28;1292;-83
2022/12/08 11:11:38;;;;;;;;;;;;;;;21.00;28.58;97874.63;5067837;28;1922;-83
2022/12/08 11:14:07;;;;;;;;;;;;;;;20.75;28.71;97869.63;5066493;28;803;-84
2022/12/08 11:16:32;;;;;;;;;;;;;;;20.62;28.88;97866.69;5100325;28;797;-84
2022/12/08 11:18:58;;;;;;;;;;;;;;;20.55;29.39;97862.00;5082226;28;789;-84
2022/12/08 11:21:29;;;;;;;;;;;;;;;20.70;29.15;97856.81;5122977;28;995;-83
2022/12/08 11:23:54;;;;;;;;;;;;;;;20.85;28.80;97851.56;5121058;28;750;-84
2022/12/08 11:26:31;;;;;;;;;;;;;;;21.14;28.33;97860.13;5124822;28;813;-83
2022/12/08 11:28:56;;;;;;;;;;;;;;;20.77;28.95;97855.81;5121452;28;776;-84
2022/12/08 11:31:32;;;;;;;;;;;;;;;20.41;29.37;97850.22;5123065;28;1894;-83
2022/12/08 11:33:58;;;;;;;;;;;;;;;20.43;29.57;97842.13;5121105;28;854;-84
2022/12/08 11:36:24;;;;;;;;;;;;;;;20.42;29.73;97855.44;5124176;28;928;-84
2022/12/08 11:38:51;;;;;;;;;;;;;;;20.79;29.10;97847.69;5120575;28;733;-84
2022/12/08 11:41:20;;;;;;;;;;;;;;;20.92;28.78;97857.03;5105777;28;833;-83
2022/12/08 11:43:52;;;;;;;;;;;;;;;21.11;28.61;97846.06;5101204;28;801;-82
2022/12/08 11:46:24;;;;;;;;;;;;;;;21.28;28.22;97845.56;5119097;28;821;-81
2022/12/08 11:49:17;;;;;;;;;;;;;;;20.79;28.89;97853.34;5118267;28;722;-81
2022/12/08 11:51:45;;;;;;;;;;;;;;;20.44;29.46;97843.69;5037320;28;1902;-80
2022/12/08 11:54:27;;;;;;;;;;;;;;;20.59;29.43;97842.16;5019873;28;921;-81
2022/12/08 11:56:53;;;;;;;;;;;;;;;20.79;29.16;97842.84;5021177;28;1331;-80
2022/12/08 11:59:27;;;;;;;;;;;;;;;21.13;28.38;97841.53;5020316;28;727;-82
2022/12/08 12:01:53;;;;;;;;;;;;;;;21.20;28.62;97832.88;5022108;28;1081;-82
2022/12/08 12:04:29;;;;;;;;;;;;;;;20.80;28.91;97850.06;5037690;28;898;-82
2022/12/08 12:07:07;;;;;;;;;;;;;;;20.49;29.53;97846.03;5038314;28;737;-82
2022/12/08 12:09:51;;;;;;;;;;;;;;;20.43;29.93;97840.09;5036429;28;1049;-82
2022/12/08 12:12:17;;;;;;;;;;;;;;;20.90;29.07;97847.44;5037807;28;827;-82
2022/12/08 12:15:00;;;;;;;;;;;;;;;20.97;28.92;97836.69;5036885;28;942;-82
2022/12/08 12:17:29;;;;;;;;;;;;;;;20.98;29.24;97845.97;5022127;28;823;-82
2022/12/08 12:19:54;;;;;;;;;;;;;;;20.63;29.54;97840.03;5037016;28;727;-82
2022/12/08 12:22:20;;;;;;;;;;;;;;;20.46;29.58;97836.38;5038124;28;917;-82
2022/12/08 12:24:46;;;;;;;;;;;;;;;20.55;30.13;97835.78;5020617;28;775;-82
2022/12/08 12:27:14;;;;;;;;;;;;;;;20.73;29.34;97838.16;5020438;28;834;-81
2022/12/08 12:29:45;;;;;;;;;;;;;;;21.01;28.89;97839.44;5117948;28;1905;-81
2022/12/08 12:32:10;;;;;;;;;;;;;;;20.99;28.89;97834.25;5118538;28;747;-82
2022/12/08 12:34:46;;;;;;;;;;;;;;;20.57;29.58;97827.63;5119931;28;777;-81
2022/12/08 12:37:12;;;;;;;;;;;;;;;20.54;29.38;97831.38;5119263;28;703;-82
2022/12/08 12:39:48;;;;;;;;;;;;;;;20.36;30.49;97825.31;5117956;28;719;-82
2022/12/08 12:42:33;;;;;;;;;;;;;;;20.72;29.67;97833.72;5120340;28;742;-82
2022/12/08 12:45:19;;;;;;;;;;;;;;;20.85;29.48;97828.16;5119304;28;1100;-82
2022/12/08 12:47:46;;;;;;;;;;;;;;;21.04;28.96;97836.53;5036567;28;1104;-82
2022/12/08 12:50:12;;;;;;;;;;;;;;;20.87;29.08;97832.13;5036478;28;1977;-82
2022/12/08 12:52:37;;;;;;;;;;;;;;;20.65;29.27;97831.88;5021030;28;895;-82
2022/12/08 12:55:08;;;;;;;;;;;;;;;20.49;29.54;97834.72;5036218;28;915;-82
2022/12/08 12:57:34;;;;;;;;;;;;;;;20.77;29.36;97836.03;5037687;28;949;-82
2022/12/08 13:00:00;;;;;;;;;;;;;;;20.78;29.35;97832.78;5036853;28;1039;-82
2022/12/08 13:02:29;;;;;;;;;;;;;;;20.98;29.05;97832.63;5039580;28;838;-83
2022/12/08 13:04:54;;;;;;;;;;;;;;;20.99;28.88;97839.09;5035899;28;883;-81
2022/12/08 13:07:21;;;;;;;;;;;;;;;20.67;29.32;97823.75;5042635;28;889;-84
2022/12/08 13:09:47;;;;;;;;;;;;;;;20.49;29.85;97820.59;5022214;28;1958;-83
2022/12/08 13:12:18;;;;;;;;;;;;;;;20.54;29.31;97820.06;5032421;28;898;-78
2022/12/08 13:14:45;;;;;;;;;;;;;;;20.76;29.43;97826.75;4994285;28;987;-77